Terminal Aerodrome Forecast
Issued by NWS

Home | Current Version | Previous Version | Text Only | Print | Product List | Glossary On
Versions: 1 2 3 4 5 6 7 8 9 10 11 12 13 14 15 16 17 18 19 20 21 22
269
FTUS43 KAPX 230520
TAFPLN
TAF
KPLN 230520Z 2306/2406 VRB03KT P6SM SCT150
     FM231500 23009G16KT P6SM FEW120
     FM240100 VRB03KT P6SM SKC=

USA.gov is the U.S. government's official web portal to all federal, state and local government web resources and services.